sensor_id;sensor_type;location;lat;lon;timestamp;pressure;altitude;pressure_sealevel;temperature;humidity
75923;BME280;64602;47.542;19.090;2023-11-21T00:03:06;99880.00;;;6.31;92.37
75923;BME280;64602;47.542;19.090;2023-11-21T00:08:09;99875.09;;;6.28;92.07
75923;BME280;64602;47.542;19.090;2023-11-21T00:13:11;99869.97;;;6.14;92.59
75923;BME280;64602;47.542;19.090;2023-11-21T00:18:14;99893.06;;;6.10;93.00
75923;BME280;64602;47.542;19.090;2023-11-21T00:23:16;99873.72;;;6.02;93.16
75923;BME280;64602;47.542;19.090;2023-11-21T00:28:20;99891.06;;;6.06;93.72
75923;BME280;64602;47.542;19.090;2023-11-21T00:33:22;99890.00;;;6.07;93.40
75923;BME280;64602;47.542;19.090;2023-11-21T00:38:24;99891.03;;;5.94;93.21
75923;BME280;64602;47.542;19.090;2023-11-21T00:43:26;99896.28;;;5.89;93.16
75923;BME280;64602;47.542;19.090;2023-11-21T00:48:28;99903.19;;;5.85;93.35
75923;BME280;64602;47.542;19.090;2023-11-21T00:53:31;99916.53;;;5.79;93.63
75923;BME280;64602;47.542;19.090;2023-11-21T00:58:33;99906.22;;;5.76;93.76
75923;BME280;64602;47.542;19.090;2023-11-21T01:03:36;99904.00;;;5.73;94.18
75923;BME280;64602;47.542;19.090;2023-11-21T01:08:38;99905.03;;;5.72;94.23
75923;BME280;64602;47.542;19.090;2023-11-21T01:13:41;99911.13;;;5.79;94.53
75923;BME280;64602;47.542;19.090;2023-11-21T01:18:43;99900.16;;;5.93;94.34
75923;BME280;64602;47.542;19.090;2023-11-21T01:23:45;99884.59;;;6.07;93.85
75923;BME280;64602;47.542;19.090;2023-11-21T01:28:47;99887.19;;;6.13;93.30
75923;BME280;64602;47.542;19.090;2023-11-21T01:33:52;99886.25;;;6.19;93.10
75923;BME280;64602;47.542;19.090;2023-11-21T01:38:54;99882.84;;;6.01;92.95
75923;BME280;64602;47.542;19.090;2023-11-21T01:43:56;99877.66;;;5.87;93.26
75923;BME280;64602;47.542;19.090;2023-11-21T01:48:59;99871.94;;;5.84;93.93
75923;BME280;64602;47.542;19.090;2023-11-21T01:54:01;99861.25;;;5.65;93.83
75923;BME280;64602;47.542;19.090;2023-11-21T01:59:06;99866.53;;;5.72;94.00
75923;BME280;64602;47.542;19.090;2023-11-21T02:04:09;99863.03;;;5.71;94.29
75923;BME280;64602;47.542;19.090;2023-11-21T02:09:11;99853.56;;;5.69;94.32
75923;BME280;64602;47.542;19.090;2023-11-21T02:14:17;99842.66;;;5.64;94.19
75923;BME280;64602;47.542;19.090;2023-11-21T02:19:22;99844.66;;;5.56;94.66
75923;BME280;64602;47.542;19.090;2023-11-21T02:24:27;99841.72;;;5.46;95.16
75923;BME280;64602;47.542;19.090;2023-11-21T02:29:29;99842.16;;;5.55;95.00
75923;BME280;64602;47.542;19.090;2023-11-21T02:34:31;99827.09;;;5.54;95.29
75923;BME280;64602;47.542;19.090;2023-11-21T02:39:33;99825.44;;;5.65;95.18
75923;BME280;64602;47.542;19.090;2023-11-21T02:44:36;99839.25;;;5.80;95.08
75923;BME280;64602;47.542;19.090;2023-11-21T02:49:38;99842.31;;;5.84;95.11
75923;BME280;64602;47.542;19.090;2023-11-21T02:54:40;99832.13;;;5.74;95.05
75923;BME280;64602;47.542;19.090;2023-11-21T02:59:42;99838.00;;;5.71;95.05
75923;BME280;64602;47.542;19.090;2023-11-21T03:04:44;99841.28;;;5.73;95.32
75923;BME280;64602;47.542;19.090;2023-11-21T03:09:46;99823.81;;;5.64;95.31
75923;BME280;64602;47.542;19.090;2023-11-21T03:14:48;99814.94;;;5.63;95.35
75923;BME280;64602;47.542;19.090;2023-11-21T03:19:50;99802.72;;;5.61;95.59
75923;BME280;64602;47.542;19.090;2023-11-21T03:24:54;99807.41;;;5.65;95.93
75923;BME280;64602;47.542;19.090;2023-11-21T03:29:56;99796.31;;;5.62;96.18
75923;BME280;64602;47.542;19.090;2023-11-21T03:34:58;99797.72;;;5.64;96.16
75923;BME280;64602;47.542;19.090;2023-11-21T03:40:01;99778.88;;;5.64;96.36
75923;BME280;64602;47.542;19.090;2023-11-21T03:45:06;99784.72;;;5.61;95.83
75923;BME280;64602;47.542;19.090;2023-11-21T03:50:09;99787.31;;;5.56;95.49
75923;BME280;64602;47.542;19.090;2023-11-21T03:55:11;99781.91;;;5.68;95.30
75923;BME280;64602;47.542;19.090;2023-11-21T04:00:14;99768.91;;;5.53;94.63
75923;BME280;64602;47.542;19.090;2023-11-21T04:05:16;99786.22;;;5.45;94.65
75923;BME280;64602;47.542;19.090;2023-11-21T04:10:18;99798.84;;;5.33;94.98
75923;BME280;64602;47.542;19.090;2023-11-21T04:15:20;99779.41;;;5.19;95.35
75923;BME280;64602;47.542;19.090;2023-11-21T04:20:23;99786.81;;;5.35;95.22
75923;BME280;64602;47.542;19.090;2023-11-21T04:25:25;99813.13;;;5.33;95.11
75923;BME280;64602;47.542;19.090;2023-11-21T04:30:27;99815.00;;;5.33;95.16
75923;BME280;64602;47.542;19.090;2023-11-21T04:35:29;99819.47;;;5.51;95.04
75923;BME280;64602;47.542;19.090;2023-11-21T04:40:31;99816.91;;;5.56;94.97
75923;BME280;64602;47.542;19.090;2023-11-21T04:45:34;99814.69;;;5.65;94.85
75923;BME280;64602;47.542;19.090;2023-11-21T04:50:36;99815.12;;;5.50;95.02
75923;BME280;64602;47.542;19.090;2023-11-21T04:55:38;99824.63;;;5.52;94.87
75923;BME280;64602;47.542;19.090;2023-11-21T05:00:40;99842.53;;;5.59;95.06
75923;BME280;64602;47.542;19.090;2023-11-21T05:05:43;99844.28;;;5.53;94.98
75923;BME280;64602;47.542;19.090;2023-11-21T05:10:45;99846.38;;;5.63;95.12
75923;BME280;64602;47.542;19.090;2023-11-21T05:15:47;99841.84;;;5.51;94.94
75923;BME280;64602;47.542;19.090;2023-11-21T05:20:49;99855.19;;;5.70;94.78
75923;BME280;64602;47.542;19.090;2023-11-21T05:25:52;99859.06;;;5.74;94.54
75923;BME280;64602;47.542;19.090;2023-11-21T05:30:54;99843.81;;;5.79;94.80
75923;BME280;64602;47.542;19.090;2023-11-21T05:36:15;99834.34;;;5.89;94.73
75923;BME280;64602;47.542;19.090;2023-11-21T05:41:17;99820.19;;;5.82;94.81
75923;BME280;64602;47.542;19.090;2023-11-21T05:46:19;99843.00;;;5.79;94.92
75923;BME280;64602;47.542;19.090;2023-11-21T05:51:21;99834.94;;;5.67;95.00
75923;BME280;64602;47.542;19.090;2023-11-21T05:56:23;99850.28;;;5.78;95.54
75923;BME280;64602;47.542;19.090;2023-11-21T06:01:26;99846.28;;;5.81;95.06
75923;BME280;64602;47.542;19.090;2023-11-21T06:06:31;99855.19;;;5.93;94.61
75923;BME280;64602;47.542;19.090;2023-11-21T06:11:33;99859.69;;;5.99;94.83
75923;BME280;64602;47.542;19.090;2023-11-21T06:16:35;99867.75;;;5.99;95.11
75923;BME280;64602;47.542;19.090;2023-11-21T06:21:37;99888.25;;;6.12;94.90
75923;BME280;64602;47.542;19.090;2023-11-21T06:26:40;99895.53;;;6.12;95.20
75923;BME280;64602;47.542;19.090;2023-11-21T06:31:43;99892.47;;;6.08;95.29
75923;BME280;64602;47.542;19.090;2023-11-21T06:36:45;99907.91;;;6.01;95.21
75923;BME280;64602;47.542;19.090;2023-11-21T06:41:49;99936.84;;;6.06;95.30
75923;BME280;64602;47.542;19.090;2023-11-21T06:46:51;99930.75;;;5.98;95.12
75923;BME280;64602;47.542;19.090;2023-11-21T06:51:54;99937.44;;;6.08;95.00
75923;BME280;64602;47.542;19.090;2023-11-21T06:56:57;99944.22;;;6.10;95.06
75923;BME280;64602;47.542;19.090;2023-11-21T07:02:00;99936.97;;;6.11;94.55
75923;BME280;64602;47.542;19.090;2023-11-21T07:07:03;99938.63;;;6.12;94.46
75923;BME280;64602;47.542;19.090;2023-11-21T07:12:05;99938.75;;;6.17;94.14
75923;BME280;64602;47.542;19.090;2023-11-21T07:17:09;99940.47;;;6.23;94.54
75923;BME280;64602;47.542;19.090;2023-11-21T07:22:11;99956.88;;;6.33;94.60
75923;BME280;64602;47.542;19.090;2023-11-21T07:27:14;99959.12;;;6.36;94.57
75923;BME280;64602;47.542;19.090;2023-11-21T07:32:17;99964.53;;;6.48;94.76
75923;BME280;64602;47.542;19.090;2023-11-21T07:37:19;99962.75;;;6.54;94.79
75923;BME280;64602;47.542;19.090;2023-11-21T07:42:23;99960.75;;;6.61;94.66
75923;BME280;64602;47.542;19.090;2023-11-21T07:47:26;99952.53;;;6.56;94.78
75923;BME280;64602;47.542;19.090;2023-11-21T07:52:29;99965.56;;;6.59;94.84
75923;BME280;64602;47.542;19.090;2023-11-21T07:57:32;99962.72;;;6.66;94.79
75923;BME280;64602;47.542;19.090;2023-11-21T08:02:35;99960.72;;;6.73;94.74
75923;BME280;64602;47.542;19.090;2023-11-21T08:07:37;99962.34;;;6.85;94.69
75923;BME280;64602;47.542;19.090;2023-11-21T08:12:40;99964.56;;;6.89;94.60
75923;BME280;64602;47.542;19.090;2023-11-21T08:17:46;99957.50;;;6.99;94.66
75923;BME280;64602;47.542;19.090;2023-11-21T08:22:48;99966.62;;;7.10;94.32
75923;BME280;64602;47.542;19.090;2023-11-21T08:27:50;99960.38;;;7.21;93.33
75923;BME280;64602;47.542;19.090;2023-11-21T08:32:53;99942.16;;;7.28;92.87
75923;BME280;64602;47.542;19.090;2023-11-21T08:37:55;99941.34;;;7.45;92.84
75923;BME280;64602;47.542;19.090;2023-11-21T08:42:58;99940.03;;;7.47;92.30
75923;BME280;64602;47.542;19.090;2023-11-21T08:48:03;99946.78;;;7.62;91.92
75923;BME280;64602;47.542;19.090;2023-11-21T08:53:05;99942.41;;;7.73;91.62
75923;BME280;64602;47.542;19.090;2023-11-21T08:58:07;99943.06;;;7.80;91.47
75923;BME280;64602;47.542;19.090;2023-11-21T09:03:10;99935.75;;;7.80;92.10
75923;BME280;64602;47.542;19.090;2023-11-21T09:08:12;99944.28;;;7.89;91.70
75923;BME280;64602;47.542;19.090;2023-11-21T09:13:14;99947.37;;;7.98;90.53
75923;BME280;64602;47.542;19.090;2023-11-21T09:18:18;99938.91;;;8.06;89.08
75923;BME280;64602;47.542;19.090;2023-11-21T09:23:21;99941.25;;;8.19;87.10
75923;BME280;64602;47.542;19.090;2023-11-21T09:28:23;99941.09;;;8.26;86.42
75923;BME280;64602;47.542;19.090;2023-11-21T09:33:25;99920.56;;;8.30;85.81
75923;BME280;64602;47.542;19.090;2023-11-21T09:38:27;99916.66;;;8.38;84.69
75923;BME280;64602;47.542;19.090;2023-11-21T09:43:31;99911.06;;;8.44;84.50
75923;BME280;64602;47.542;19.090;2023-11-21T09:48:35;99917.19;;;8.56;83.03
75923;BME280;64602;47.542;19.090;2023-11-21T09:53:43;99897.84;;;8.65;83.14
75923;BME280;64602;47.542;19.090;2023-11-21T09:58:50;99903.53;;;8.68;84.77
75923;BME280;64602;47.542;19.090;2023-11-21T10:03:53;99905.19;;;8.69;84.35
75923;BME280;64602;47.542;19.090;2023-11-21T10:08:57;99913.44;;;8.80;84.57
75923;BME280;64602;47.542;19.090;2023-11-21T10:14:02;99901.22;;;8.77;84.33
75923;BME280;64602;47.542;19.090;2023-11-21T10:19:04;99905.09;;;8.81;84.69
75923;BME280;64602;47.542;19.090;2023-11-21T10:24:13;99896.13;;;8.81;84.97
75923;BME280;64602;47.542;19.090;2023-11-21T10:29:15;99886.37;;;8.80;85.79
75923;BME280;64602;47.542;19.090;2023-11-21T10:34:22;99881.66;;;8.92;83.86
75923;BME280;64602;47.542;19.090;2023-11-21T10:39:24;99874.09;;;8.94;83.81
75923;BME280;64602;47.542;19.090;2023-11-21T10:44:32;99891.00;;;9.06;83.61
75923;BME280;64602;47.542;19.090;2023-11-21T10:49:36;99871.31;;;9.11;82.34
75923;BME280;64602;47.542;19.090;2023-11-21T10:54:39;99880.84;;;9.18;80.52
75923;BME280;64602;47.542;19.090;2023-11-21T10:59:41;99885.06;;;9.36;79.94
75923;BME280;64602;47.542;19.090;2023-11-21T11:04:48;99876.56;;;9.50;79.75
75923;BME280;64602;47.542;19.090;2023-11-21T11:09:50;99888.03;;;9.62;78.96
75923;BME280;64602;47.542;19.090;2023-11-21T11:14:55;99886.34;;;9.56;77.35
75923;BME280;64602;47.542;19.090;2023-11-21T11:19:58;99873.63;;;9.56;77.88
75923;BME280;64602;47.542;19.090;2023-11-21T11:35:59;99869.03;;;9.57;77.58
75923;BME280;64602;47.542;19.090;2023-11-21T11:41:05;99857.91;;;9.58;78.73
75923;BME280;64602;47.542;19.090;2023-11-21T11:46:07;99867.12;;;9.57;78.78
75923;BME280;64602;47.542;19.090;2023-11-21T11:51:11;99855.75;;;9.60;78.85
75923;BME280;64602;47.542;19.090;2023-11-21T12:01:34;99857.66;;;9.60;78.35
75923;BME280;64602;47.542;19.090;2023-11-21T12:06:36;99845.47;;;9.57;78.58
75923;BME280;64602;47.542;19.090;2023-11-21T12:11:41;99846.88;;;9.65;78.75
75923;BME280;64602;47.542;19.090;2023-11-21T12:16:43;99845.53;;;9.68;78.72
75923;BME280;64602;47.542;19.090;2023-11-21T12:21:45;99824.13;;;9.66;79.05
75923;BME280;64602;47.542;19.090;2023-11-21T12:26:48;99833.63;;;9.69;79.59
75923;BME280;64602;47.542;19.090;2023-11-21T12:31:50;99838.00;;;9.75;80.14
75923;BME280;64602;47.542;19.090;2023-11-21T12:36:52;99831.75;;;9.74;79.38
75923;BME280;64602;47.542;19.090;2023-11-21T12:41:57;99807.41;;;9.79;79.48
75923;BME280;64602;47.542;19.090;2023-11-21T12:46:59;99812.31;;;9.82;78.72
75923;BME280;64602;47.542;19.090;2023-11-21T12:52:03;99822.34;;;9.87;78.65
75923;BME280;64602;47.542;19.090;2023-11-21T12:57:05;99825.06;;;9.87;79.30
75923;BME280;64602;47.542;19.090;2023-11-21T13:02:12;99822.09;;;9.89;79.13
75923;BME280;64602;47.542;19.090;2023-11-21T13:07:16;99817.75;;;9.88;79.10
75923;BME280;64602;47.542;19.090;2023-11-21T13:12:24;99827.25;;;9.90;79.14
75923;BME280;64602;47.542;19.090;2023-11-21T13:17:26;99838.63;;;9.87;79.21
75923;BME280;64602;47.542;19.090;2023-11-21T13:22:29;99820.97;;;9.79;79.97
75923;BME280;64602;47.542;19.090;2023-11-21T13:27:33;99824.78;;;9.83;79.89
75923;BME280;64602;47.542;19.090;2023-11-21T13:32:36;99831.28;;;9.82;79.90
75923;BME280;64602;47.542;19.090;2023-11-21T13:37:38;99831.25;;;9.77;78.23
75923;BME280;64602;47.542;19.090;2023-11-21T13:42:41;99825.81;;;9.77;77.80
75923;BME280;64602;47.542;19.090;2023-11-21T13:47:43;99826.03;;;9.71;78.16
75923;BME280;64602;47.542;19.090;2023-11-21T13:52:47;99838.53;;;9.72;78.05
75923;BME280;64602;47.542;19.090;2023-11-21T13:57:49;99847.19;;;9.69;77.97
75923;BME280;64602;47.542;19.090;2023-11-21T14:02:54;99848.78;;;9.65;78.07
75923;BME280;64602;47.542;19.090;2023-11-21T14:07:56;99852.25;;;9.60;78.24
75923;BME280;64602;47.542;19.090;2023-11-21T14:13:04;99863.03;;;9.55;78.32
75923;BME280;64602;47.542;19.090;2023-11-21T14:18:08;99847.78;;;9.44;78.21
75923;BME280;64602;47.542;19.090;2023-11-21T14:23:12;99858.59;;;9.44;78.08
75923;BME280;64602;47.542;19.090;2023-11-21T14:28:14;99865.31;;;9.36;78.01
75923;BME280;64602;47.542;19.090;2023-11-21T14:33:16;99863.06;;;9.28;78.47
75923;BME280;64602;47.542;19.090;2023-11-21T14:38:19;99876.00;;;9.20;78.52
75923;BME280;64602;47.542;19.090;2023-11-21T14:43:21;99874.81;;;9.11;78.94
75923;BME280;64602;47.542;19.090;2023-11-21T14:48:23;99868.16;;;8.97;79.83
75923;BME280;64602;47.542;19.090;2023-11-21T14:53:44;99873.47;;;8.87;80.41
75923;BME280;64602;47.542;19.090;2023-11-21T14:58:56;99875.84;;;8.83;80.75
75923;BME280;64602;47.542;19.090;2023-11-21T15:03:59;99875.22;;;8.76;80.92
75923;BME280;64602;47.542;19.090;2023-11-21T15:09:01;99868.03;;;8.60;81.48
75923;BME280;64602;47.542;19.090;2023-11-21T15:14:09;99881.38;;;8.49;82.14
75923;BME280;64602;47.542;19.090;2023-11-21T15:19:15;99881.84;;;8.41;82.80
75923;BME280;64602;47.542;19.090;2023-11-21T15:24:20;99874.88;;;8.28;83.59
75923;BME280;64602;47.542;19.090;2023-11-21T15:29:22;99883.50;;;8.25;84.10
75923;BME280;64602;47.542;19.090;2023-11-21T15:34:24;99883.91;;;8.17;84.53
75923;BME280;64602;47.542;19.090;2023-11-21T15:39:30;99877.34;;;8.13;85.05
75923;BME280;64602;47.542;19.090;2023-11-21T15:44:32;99879.16;;;8.07;86.08
75923;BME280;64602;47.542;19.090;2023-11-21T15:49:35;99876.91;;;7.82;87.02
75923;BME280;64602;47.542;19.090;2023-11-21T15:54:40;99891.22;;;7.83;87.74
75923;BME280;64602;47.542;19.090;2023-11-21T15:59:42;99882.47;;;7.76;88.31
75923;BME280;64602;47.542;19.090;2023-11-21T16:04:47;99879.28;;;7.62;89.05
75923;BME280;64602;47.542;19.090;2023-11-21T16:09:49;99877.88;;;7.59;89.28
75923;BME280;64602;47.542;19.090;2023-11-21T16:14:51;99872.09;;;7.51;89.42
75923;BME280;64602;47.542;19.090;2023-11-21T16:19:53;99880.91;;;7.46;89.51
75923;BME280;64602;47.542;19.090;2023-11-21T16:24:58;99882.72;;;7.40;89.45
75923;BME280;64602;47.542;19.090;2023-11-21T16:30:02;99884.06;;;7.26;88.98
75923;BME280;64602;47.542;19.090;2023-11-21T16:35:06;99876.72;;;7.21;89.03
75923;BME280;64602;47.542;19.090;2023-11-21T16:40:08;99879.78;;;7.13;89.16
75923;BME280;64602;47.542;19.090;2023-11-21T16:45:11;99882.00;;;7.16;89.26
75923;BME280;64602;47.542;19.090;2023-11-21T16:50:13;99881.88;;;7.11;89.30
75923;BME280;64602;47.542;19.090;2023-11-21T16:55:16;99899.88;;;7.05;89.31
75923;BME280;64602;47.542;19.090;2023-11-21T17:00:18;99901.28;;;7.08;89.46
75923;BME280;64602;47.542;19.090;2023-11-21T17:05:24;99885.22;;;7.01;89.22
75923;BME280;64602;47.542;19.090;2023-11-21T17:10:27;99890.25;;;7.10;88.92
75923;BME280;64602;47.542;19.090;2023-11-21T17:15:29;99890.97;;;7.05;88.76
75923;BME280;64602;47.542;19.090;2023-11-21T17:20:31;99889.34;;;7.04;88.77
75923;BME280;64602;47.542;19.090;2023-11-21T17:25:34;99905.03;;;7.07;88.61
75923;BME280;64602;47.542;19.090;2023-11-21T17:30:38;99908.94;;;6.99;88.63
75923;BME280;64602;47.542;19.090;2023-11-21T17:35:40;99918.91;;;6.99;89.01
75923;BME280;64602;47.542;19.090;2023-11-21T17:40:43;99921.84;;;6.97;89.33
75923;BME280;64602;47.542;19.090;2023-11-21T17:45:47;99929.59;;;6.94;89.33
75923;BME280;64602;47.542;19.090;2023-11-21T17:50:50;99927.38;;;6.91;89.46
75923;BME280;64602;47.542;19.090;2023-11-21T17:55:52;99933.16;;;6.82;89.81
75923;BME280;64602;47.542;19.090;2023-11-21T18:00:54;99933.88;;;6.78;90.23
75923;BME280;64602;47.542;19.090;2023-11-21T18:05:57;99934.22;;;6.70;90.46
75923;BME280;64602;47.542;19.090;2023-11-21T18:10:59;99942.34;;;6.58;90.88
75923;BME280;64602;47.542;19.090;2023-11-21T18:16:03;99948.31;;;6.60;91.29
75923;BME280;64602;47.542;19.090;2023-11-21T18:21:05;99959.47;;;6.52;91.49
75923;BME280;64602;47.542;19.090;2023-11-21T18:26:09;99950.09;;;6.42;92.16
75923;BME280;64602;47.542;19.090;2023-11-21T18:31:11;99954.19;;;6.45;92.15
75923;BME280;64602;47.542;19.090;2023-11-21T18:36:13;99961.22;;;6.34;92.14
75923;BME280;64602;47.542;19.090;2023-11-21T18:41:22;99968.72;;;6.32;92.21
75923;BME280;64602;47.542;19.090;2023-11-21T18:46:25;99966.84;;;6.21;92.66
75923;BME280;64602;47.542;19.090;2023-11-21T18:51:27;99961.31;;;6.04;93.14
75923;BME280;64602;47.542;19.090;2023-11-21T18:56:30;99971.66;;;6.07;93.25
75923;BME280;64602;47.542;19.090;2023-11-21T19:01:33;99968.25;;;6.00;93.48
75923;BME280;64602;47.542;19.090;2023-11-21T19:06:35;99969.59;;;5.91;93.62
75923;BME280;64602;47.542;19.090;2023-11-21T19:11:38;99971.69;;;5.89;94.05
75923;BME280;64602;47.542;19.090;2023-11-21T19:16:40;99983.28;;;5.89;94.27
75923;BME280;64602;47.542;19.090;2023-11-21T19:21:43;99972.84;;;5.81;94.35
75923;BME280;64602;47.542;19.090;2023-11-21T19:26:45;99979.03;;;5.70;94.61
75923;BME280;64602;47.542;19.090;2023-11-21T19:31:48;99988.06;;;5.75;94.83
75923;BME280;64602;47.542;19.090;2023-11-21T19:36:50;99978.87;;;5.65;95.43
75923;BME280;64602;47.542;19.090;2023-11-21T19:41:53;99988.97;;;5.69;95.20
75923;BME280;64602;47.542;19.090;2023-11-21T19:46:55;99990.03;;;5.68;95.58
75923;BME280;64602;47.542;19.090;2023-11-21T19:51:57;99998.12;;;5.68;95.46
75923;BME280;64602;47.542;19.090;2023-11-21T19:57:00;100008.03;;;5.68;95.67
